Time;durP1;ratioP1;P1;durP2;ratioP2;P2;SDS_P1;SDS_P2;PMS_P1;PMS_P2;Temp;Humidity;BMP_temperature;BMP_pressure;BME280_temperature;BME280_humidity;BME280_pressure;Samples;Min_cycle;Max_cycle;Signal;HPM_P1;HPM_P2
2021/05/05 00:00:00;;;;;;;8.23;3.55;;;18.40;47.50;;;;;;4901620;29;20167;-83
2021/05/05 00:02:34;;;;;;;4.22;3.35;;;18.40;47.50;;;;;;4882936;29;20204;-82
2021/05/05 00:33:49;;;;;;;6.00;3.65;;;18.30;47.50;;;;;;4939409;29;20208;-83
2021/05/05 00:51:41;;;;;;;3.92;3.22;;;18.30;47.60;;;;;;4978780;28;20220;-82
2021/05/05 01:12:55;;;;;;;4.00;3.30;;;18.30;47.60;;;;;;4982195;28;20224;-82
2021/05/05 01:16:13;;;;;;;5.05;3.30;;;18.30;47.60;;;;;;4980276;28;20215;-83
2021/05/05 01:35:57;;;;;;;6.65;3.53;;;18.20;47.70;;;;;;4982509;28;20524;-83
2021/05/05 01:49:21;;;;;;;6.70;3.90;;;18.20;47.70;;;;;;4884459;29;20551;-82
2021/05/05 02:23:04;;;;;;;4.88;3.10;;;18.20;47.90;;;;;;4874849;29;20182;-83
2021/05/05 02:25:54;;;;;;;4.82;3.92;;;18.20;47.80;;;;;;4846954;29;20265;-83
2021/05/05 02:35:21;;;;;;;3.80;3.40;;;18.20;47.80;;;;;;4846572;29;20165;-83
2021/05/05 02:45:10;;;;;;;5.03;3.55;;;18.20;47.80;;;;;;4758580;29;20258;-82
2021/05/05 03:14:54;;;;;;;7.25;3.70;;;18.10;47.80;;;;;;4810161;29;20188;-82
2021/05/05 03:20:41;;;;;;;5.50;3.65;;;18.10;47.80;;;;;;4976366;28;20220;-82
2021/05/05 03:40:50;;;;;;;7.40;3.63;;;18.10;47.80;;;;;;4982300;28;20184;-82
2021/05/05 03:54:24;;;;;;;4.97;3.22;;;18.10;47.90;;;;;;4982340;28;20168;-82
2021/05/05 04:00:41;;;;;;;4.43;3.50;;;18.10;47.90;;;;;;4982626;28;20172;-82
2021/05/05 04:03:51;;;;;;;5.43;3.13;;;18.10;47.90;;;;;;4981734;28;20161;-82
2021/05/05 04:24:01;;;;;;;5.18;3.40;;;18.10;47.60;;;;;;4977785;28;20204;-83
2021/05/05 04:27:18;;;;;;;4.55;3.38;;;18.10;47.70;;;;;;4964010;28;20282;-82
2021/05/05 04:37:58;;;;;;;3.75;3.00;;;18.20;47.50;;;;;;4981568;28;20235;-82
2021/05/05 04:58:47;;;;;;;4.72;3.25;;;18.20;47.50;;;;;;4983038;28;20255;-83
2021/05/05 05:18:37;;;;;;;4.30;2.97;;;18.30;47.30;;;;;;4922037;29;20282;-83
2021/05/05 05:21:16;;;;;;;4.47;3.20;;;18.20;47.20;;;;;;4906829;29;20170;-83
2021/05/05 05:27:15;;;;;;;3.97;3.20;;;18.20;47.20;;;;;;4923659;29;20226;-82
2021/05/05 05:29:59;;;;;;;3.97;3.40;;;18.20;47.20;;;;;;4891468;29;20187;-83
2021/05/05 05:36:17;;;;;;;5.55;2.88;;;18.20;47.20;;;;;;4846481;29;20178;-82
2021/05/05 06:06:30;;;;;;;4.07;3.00;;;18.20;47.10;;;;;;4864718;29;20627;-82
2021/05/05 06:09:03;;;;;;;4.88;3.50;;;18.20;47.20;;;;;;4866831;29;20168;-85
2021/05/05 06:11:30;;;;;;;3.95;2.92;;;18.20;47.30;;;;;;4848869;28;20647;-84
2021/05/05 06:14:07;;;;;;;5.35;3.17;;;18.20;47.20;;;;;;4964315;28;20157;-84
2021/05/05 06:16:42;;;;;;;4.20;3.40;;;18.20;47.30;;;;;;4948291;28;20253;-84
2021/05/05 06:19:17;;;;;;;5.30;3.35;;;18.20;47.30;;;;;;4949297;28;20165;-84
2021/05/05 06:21:44;;;;;;;3.88;3.05;;;18.20;47.30;;;;;;4965676;28;20164;-83
2021/05/05 06:24:11;;;;;;;3.75;2.92;;;18.20;47.30;;;;;;4949930;28;20171;-85
2021/05/05 06:26:46;;;;;;;4.15;3.40;;;18.20;47.40;;;;;;4951308;28;20252;-83
2021/05/05 06:29:12;;;;;;;4.68;3.25;;;18.20;47.30;;;;;;4950927;28;20172;-84
2021/05/05 06:31:39;;;;;;;3.75;3.35;;;18.20;47.40;;;;;;4966974;28;20196;-84
2021/05/05 06:34:14;;;;;;;5.10;2.90;;;18.20;47.30;;;;;;4966999;28;20218;-83
2021/05/05 06:36:51;;;;;;;3.80;3.10;;;18.20;47.40;;;;;;4984672;28;20164;-83
2021/05/05 06:39:17;;;;;;;5.88;3.30;;;18.10;47.10;;;;;;4952864;28;20215;-84
2021/05/05 06:41:48;;;;;;;4.22;3.00;;;18.20;47.30;;;;;;4948148;28;20203;-84
2021/05/05 06:44:15;;;;;;;3.65;3.00;;;18.20;47.20;;;;;;4949558;28;20251;-84
2021/05/05 06:46:44;;;;;;;4.60;3.20;;;18.20;47.10;;;;;;4949214;28;20157;-84
2021/05/05 06:49:11;;;;;;;3.63;2.78;;;18.20;47.40;;;;;;4952138;28;20172;-83
2021/05/05 06:51:38;;;;;;;4.07;3.30;;;18.20;47.10;;;;;;4949227;28;20173;-85
2021/05/05 06:54:05;;;;;;;3.63;3.15;;;18.20;47.20;;;;;;4934654;29;20227;-83
2021/05/05 06:56:31;;;;;;;3.30;2.90;;;18.20;47.20;;;;;;4950756;29;20185;-85
2021/05/05 06:58:56;;;;;;;3.80;2.63;;;18.20;47.20;;;;;;4941860;28;20513;-83
2021/05/05 07:01:22;;;;;;;3.72;2.88;;;18.20;46.80;;;;;;4950119;28;20149;-83
2021/05/05 07:03:53;;;;;;;4.68;3.20;;;18.30;47.20;;;;;;4951572;28;20168;-84
2021/05/05 07:06:23;;;;;;;3.90;2.85;;;18.30;47.50;;;;;;4956138;29;20189;-85
2021/05/05 07:08:49;;;;;;;3.90;2.80;;;18.30;47.50;;;;;;4930510;29;20220;-81
2021/05/05 07:11:16;;;;;;;3.63;2.80;;;18.30;47.50;;;;;;4943102;29;20165;-84
2021/05/05 07:13:45;;;;;;;4.32;3.20;;;18.30;47.20;;;;;;4928889;29;20582;-83
2021/05/05 07:16:12;;;;;;;6.15;2.95;;;18.30;47.70;;;;;;4945560;29;20157;-82
2021/05/05 07:18:38;;;;;;;4.15;3.13;;;18.30;47.30;;;;;;4952482;29;20236;-83
2021/05/05 07:21:04;;;;;;;3.60;2.65;;;18.30;47.30;;;;;;4943967;28;20702;-82
2021/05/05 07:23:43;;;;;;;5.60;2.67;;;18.30;47.50;;;;;;4979789;28;20162;-82
2021/05/05 07:26:16;;;;;;;3.60;3.00;;;18.40;47.30;;;;;;4955158;28;20264;-84
2021/05/05 07:28:46;;;;;;;4.13;3.00;;;18.40;47.20;;;;;;4938790;28;20176;-83
2021/05/05 07:31:20;;;;;;;4.20;2.80;;;18.40;47.30;;;;;;4970911;28;20675;-84
2021/05/05 07:33:49;;;;;;;4.32;2.70;;;18.40;47.90;;;;;;4953650;28;20211;-82
2021/05/05 07:36:28;;;;;;;4.35;2.70;;;18.40;47.10;;;;;;4937404;28;20176;-82
2021/05/05 07:48:10;;;;;;;5.30;3.10;;;18.40;46.90;;;;;;4893937;29;20179;-83
2021/05/05 07:50:36;;;;;;;4.07;3.10;;;18.50;47.30;;;;;;4872087;29;20181;-82
2021/05/05 07:53:02;;;;;;;5.00;2.92;;;18.40;47.10;;;;;;4870648;29;20187;-84
2021/05/05 07:55:28;;;;;;;6.25;3.05;;;18.40;47.10;;;;;;4882037;29;20254;-83
2021/05/05 07:57:54;;;;;;;7.00;3.13;;;18.40;47.00;;;;;;4867294;29;20238;-82
2021/05/05 08:00:23;;;;;;;3.58;2.90;;;18.40;47.00;;;;;;4852104;29;20278;-83
2021/05/05 08:02:55;;;;;;;7.43;2.92;;;18.40;46.90;;;;;;4874315;29;20215;-81
2021/05/05 08:05:25;;;;;;;8.93;2.95;;;18.40;47.10;;;;;;4891617;29;20183;-82
2021/05/05 08:07:59;;;;;;;6.90;2.97;;;18.40;47.10;;;;;;4894596;29;20202;-82
2021/05/05 08:10:26;;;;;;;7.25;2.80;;;18.40;47.10;;;;;;4887880;29;20227;-84
2021/05/05 08:12:55;;;;;;;9.68;3.00;;;18.50;47.20;;;;;;4870947;29;20207;-82
2021/05/05 08:15:22;;;;;;;4.10;2.30;;;18.50;47.30;;;;;;4888556;29;20182;-82
2021/05/05 08:17:56;;;;;;;5.13;2.60;;;18.50;46.80;;;;;;4910562;28;20591;-84
2021/05/05 08:20:27;;;;;;;6.70;2.80;;;18.50;47.10;;;;;;4921586;29;20173;-84
2021/05/05 08:23:09;;;;;;;3.75;2.45;;;18.50;47.20;;;;;;4951338;29;20608;-83
2021/05/05 08:25:42;;;;;;;6.07;3.00;;;18.50;47.30;;;;;;4935449;29;20254;-84
2021/05/05 08:28:10;;;;;;;3.72;2.88;;;18.50;47.30;;;;;;4933898;29;20189;-83
2021/05/05 08:30:47;;;;;;;;;;;;;;;;;;;;;
2021/05/05 08:33:14;;;;;;;4.38;2.83;;;18.50;47.50;;;;;;4979095;28;20263;-84
2021/05/05 08:35:40;;;;;;;6.10;2.60;;;18.40;47.70;;;;;;4929556;28;20207;-84
2021/05/05 08:38:11;;;;;;;5.13;2.85;;;18.40;47.80;;;;;;4926368;29;20193;-82
2021/05/05 08:40:43;;;;;;;3.83;2.90;;;18.40;48.00;;;;;;4956402;29;20172;-85
2021/05/05 08:43:09;;;;;;;4.13;2.85;;;18.40;47.80;;;;;;4977467;28;20157;-83
2021/05/05 08:48:52;;;;;;;7.90;2.80;;;18.40;47.70;;;;;;4947875;29;20185;-82
2021/05/05 08:51:18;;;;;;;5.22;2.80;;;18.40;47.80;;;;;;4942557;29;20181;-84
2021/05/05 08:53:44;;;;;;;5.63;2.85;;;18.40;47.80;;;;;;4943646;29;20200;-83
2021/05/05 08:56:10;;;;;;;4.63;2.55;;;18.40;47.80;;;;;;4943935;29;20170;-82
2021/05/05 08:58:36;;;;;;;4.22;3.00;;;18.40;47.80;;;;;;4943176;29;20742;-85
2021/05/05 09:01:03;;;;;;;6.85;3.03;;;18.40;47.80;;;;;;4925486;29;20225;-80
2021/05/05 09:03:41;;;;;;;6.38;2.90;;;18.40;47.90;;;;;;4928627;29;20170;-83
2021/05/05 09:06:56;;;;;;;5.32;2.70;;;18.40;47.80;;;;;;4945205;29;20186;-86
2021/05/05 09:09:04;;;;;;;5.60;2.80;;;18.40;47.80;;;;;;4921402;29;20182;-81
2021/05/05 09:11:44;;;;;;;5.53;2.80;;;18.40;47.80;;;;;;4929260;29;20162;-83
2021/05/05 09:14:12;;;;;;;4.97;2.90;;;18.40;47.80;;;;;;4929596;29;20158;-84
2021/05/05 09:16:38;;;;;;;6.53;3.03;;;18.40;47.80;;;;;;4929455;29;20171;-79
2021/05/05 09:19:10;;;;;;;4.57;3.20;;;18.40;47.80;;;;;;4927851;29;20594;-84
2021/05/05 09:21:37;;;;;;;3.42;2.85;;;18.40;47.90;;;;;;4906168;29;20221;-84
2021/05/05 09:24:17;;;;;;;3.65;2.80;;;18.40;47.80;;;;;;4908734;29;20177;-84
2021/05/05 09:26:45;;;;;;;3.75;3.00;;;18.40;47.80;;;;;;4925906;29;20272;-84
2021/05/05 09:33:03;;;;;;;3.92;2.50;;;18.40;47.90;;;;;;4962910;29;20184;-84
2021/05/05 09:35:44;;;;;;;4.13;2.97;;;18.40;47.80;;;;;;4962821;29;20213;-84
2021/05/05 09:39:02;;;;;;;6.20;2.90;;;18.40;47.80;;;;;;4945566;29;20266;-83
2021/05/05 09:41:30;;;;;;;6.03;2.85;;;18.40;47.90;;;;;;4962141;29;20157;-83
2021/05/05 09:44:54;;;;;;;3.47;2.80;;;18.40;47.90;;;;;;4937378;29;20189;-84
2021/05/05 09:54:35;;;;;;;3.63;2.75;;;18.40;47.80;;;;;;4974289;29;20157;-85
2021/05/05 10:00:28;;;;;;;3.10;2.42;;;18.40;47.80;;;;;;4974221;29;20208;-84
2021/05/05 10:03:18;;;;;;;3.08;2.70;;;18.40;47.90;;;;;;4960091;29;20157;-84
2021/05/05 10:09:29;;;;;;;5.80;2.70;;;18.40;47.70;;;;;;4977271;29;20684;-83
2021/05/05 10:12:22;;;;;;;4.70;2.58;;;18.40;47.80;;;;;;4944786;29;20192;-84
2021/05/05 10:15:36;;;;;;;3.72;2.70;;;18.40;47.80;;;;;;4945030;29;20169;-83
2021/05/05 10:18:14;;;;;;;5.75;2.80;;;18.40;47.80;;;;;;4944646;29;20217;-84
2021/05/05 10:20:49;;;;;;;4.85;2.80;;;18.40;47.60;;;;;;4946566;29;20161;-83
2021/05/05 10:23:19;;;;;;;4.05;2.53;;;18.40;47.80;;;;;;4947228;29;20656;-83
2021/05/05 10:26:13;;;;;;;4.25;2.90;;;18.40;47.80;;;;;;4945386;29;20579;-83
2021/05/05 10:35:50;;;;;;;4.72;2.80;;;18.40;47.80;;;;;;4896864;29;20195;-84
2021/05/05 10:38:37;;;;;;;5.30;2.83;;;18.30;47.80;;;;;;4858228;29;20750;-83
2021/05/05 10:41:20;;;;;;;4.13;2.70;;;18.40;47.80;;;;;;4854016;29;20160;-84
2021/05/05 10:43:47;;;;;;;5.72;2.50;;;18.40;47.80;;;;;;4842192;29;20548;-83
2021/05/05 10:46:35;;;;;;;3.40;2.63;;;18.40;47.70;;;;;;4855070;29;20208;-83
2021/05/05 10:49:06;;;;;;;4.68;2.72;;;18.40;47.70;;;;;;4890722;29;20204;-83
2021/05/05 10:51:49;;;;;;;3.42;2.63;;;18.40;47.70;;;;;;4888314;29;20277;-83
2021/05/05 10:54:19;;;;;;;3.38;2.58;;;18.40;47.70;;;;;;4870766;29;20191;-83
2021/05/05 10:57:13;;;;;;;3.95;2.80;;;18.40;47.70;;;;;;4851875;29;20168;-83
2021/05/05 10:59:57;;;;;;;3.40;3.10;;;18.40;47.80;;;;;;4880502;29;20187;-82
2021/05/05 11:02:48;;;;;;;3.67;2.80;;;18.40;47.70;;;;;;4864711;29;20161;-82
2021/05/05 11:05:38;;;;;;;3.60;2.60;;;18.40;47.70;;;;;;4864436;29;20190;-82
2021/05/05 11:08:06;;;;;;;3.60;2.45;;;18.40;47.70;;;;;;4919875;29;20198;-82
2021/05/05 11:10:32;;;;;;;4.35;2.53;;;18.40;47.80;;;;;;4899132;29;20185;-82
2021/05/05 11:13:04;;;;;;;3.90;2.80;;;18.40;47.60;;;;;;4945859;29;20170;-83
2021/05/05 11:15:47;;;;;;;2.75;2.42;;;18.40;47.70;;;;;;4951738;29;20169;-82
2021/05/05 11:18:28;;;;;;;3.38;2.53;;;18.40;47.60;;;;;;4950107;29;20576;-82
2021/05/05 11:20:59;;;;;;;6.75;2.75;;;18.40;47.60;;;;;;4952380;29;20255;-82
2021/05/05 11:23:42;;;;;;;3.17;2.60;;;18.40;47.70;;;;;;4951585;29;20157;-82
2021/05/05 11:26:36;;;;;;;4.63;2.67;;;18.40;47.80;;;;;;4967736;28;20231;-82
2021/05/05 11:29:12;;;;;;;3.42;2.70;;;18.40;47.80;;;;;;4935210;29;20268;-82
2021/05/05 11:31:49;;;;;;;3.63;2.63;;;18.40;47.90;;;;;;4936159;29;20181;-82
2021/05/05 11:34:23;;;;;;;4.18;2.65;;;18.30;47.80;;;;;;4967608;29;20213;-82
2021/05/05 11:37:03;;;;;;;4.03;2.45;;;18.40;47.80;;;;;;4967955;29;20208;-82
2021/05/05 11:39:36;;;;;;;4.25;2.45;;;18.40;47.80;;;;;;4950794;29;20193;-82
2021/05/05 11:42:29;;;;;;;4.90;2.50;;;18.40;47.70;;;;;;4951306;29;20160;-82
2021/05/05 11:45:10;;;;;;;5.82;2.53;;;18.40;47.60;;;;;;4934372;29;20231;-81
2021/05/05 11:47:41;;;;;;;3.65;2.70;;;18.40;47.50;;;;;;4948076;29;20251;-82
2021/05/05 11:50:25;;;;;;;3.22;2.47;;;18.40;47.50;;;;;;4932517;29;20614;-82
2021/05/05 11:53:03;;;;;;;3.13;2.40;;;18.50;47.30;;;;;;4933064;29;20184;-81
2021/05/05 11:55:52;;;;;;;3.72;2.47;;;18.50;47.50;;;;;;4932685;29;20192;-81
2021/05/05 11:58:39;;;;;;;6.57;2.70;;;18.40;47.50;;;;;;4892082;29;20612;-82
2021/05/05 12:01:17;;;;;;;7.65;2.53;;;18.40;47.50;;;;;;4892124;29;20180;-83
2021/05/05 12:03:45;;;;;;;10.10;2.70;;;18.40;47.50;;;;;;4904240;29;20242;-81
2021/05/05 12:06:22;;;;;;;8.32;2.67;;;18.40;47.60;;;;;;4908169;29;20667;-79
2021/05/05 12:08:52;;;;;;;9.98;2.88;;;18.40;47.60;;;;;;4892023;29;20274;-80
2021/05/05 12:11:28;;;;;;;6.55;2.60;;;18.40;47.70;;;;;;4895081;29;20284;-80
2021/05/05 12:13:55;;;;;;;6.43;2.60;;;18.40;47.70;;;;;;4893672;29;20218;-83
2021/05/05 12:16:30;;;;;;;6.15;2.80;;;18.40;47.80;;;;;;4892736;29;20183;-83
2021/05/05 12:18:58;;;;;;;6.78;2.40;;;18.40;47.80;;;;;;4910704;29;20259;-80
2021/05/05 12:21:26;;;;;;;7.22;2.72;;;18.40;47.70;;;;;;4892418;29;20238;-81
2021/05/05 12:24:02;;;;;;;7.57;2.97;;;18.30;47.70;;;;;;4892305;29;20247;-80
2021/05/05 12:26:32;;;;;;;6.55;2.35;;;18.40;47.80;;;;;;4905214;29;20190;-80
2021/05/05 12:29:00;;;;;;;9.40;2.95;;;18.30;47.80;;;;;;4893259;29;20191;-81
2021/05/05 12:31:29;;;;;;;3.45;2.60;;;18.30;47.80;;;;;;4895060;29;20262;-81
2021/05/05 12:33:57;;;;;;;3.85;2.50;;;18.30;47.70;;;;;;4904881;29;20274;-83
2021/05/05 12:36:33;;;;;;;7.63;2.45;;;18.30;47.80;;;;;;4955378;29;20186;-82
2021/05/05 12:39:11;;;;;;;3.35;2.53;;;18.40;47.80;;;;;;4947210;29;20205;-82
2021/05/05 12:41:44;;;;;;;3.78;2.28;;;18.30;47.80;;;;;;4934695;29;20172;-83
2021/05/05 12:44:15;;;;;;;5.72;2.63;;;18.40;47.80;;;;;;4951616;29;20193;-83
2021/05/05 12:46:58;;;;;;;3.85;2.33;;;18.30;47.80;;;;;;4934710;29;20272;-83
2021/05/05 12:49:34;;;;;;;5.30;2.22;;;18.30;47.80;;;;;;4947410;29;20174;-84
2021/05/05 12:52:00;;;;;;;3.38;2.42;;;18.40;47.70;;;;;;4925340;29;20699;-82
2021/05/05 12:54:42;;;;;;;3.70;2.40;;;18.40;47.80;;;;;;4925040;29;20169;-82
2021/05/05 12:57:20;;;;;;;4.72;2.47;;;18.40;47.80;;;;;;4948598;29;20208;-79
2021/05/05 13:00:19;;;;;;;6.82;2.58;;;18.40;47.80;;;;;;4951317;29;20173;-81
2021/05/05 13:03:05;;;;;;;4.00;2.28;;;18.40;47.80;;;;;;4953501;29;20173;-81
2021/05/05 13:06:11;;;;;;;4.47;2.50;;;18.40;47.80;;;;;;4964685;29;20185;-82
2021/05/05 13:08:56;;;;;;;3.75;2.25;;;18.40;47.70;;;;;;4943407;29;20177;-83
2021/05/05 13:11:33;;;;;;;2.83;2.00;;;18.40;47.70;;;;;;4929529;29;20644;-80
2021/05/05 13:14:29;;;;;;;3.92;2.22;;;18.40;47.60;;;;;;4939097;29;20224;-79
2021/05/05 13:42:28;;;;;;;4.35;2.50;;;18.40;47.70;;;;;;4942010;29;20218;-81
2021/05/05 13:44:57;;;;;;;5.35;2.47;;;18.40;47.70;;;;;;4944003;29;20217;-80
2021/05/05 13:50:49;;;;;;;4.90;2.40;;;18.40;47.60;;;;;;4929449;29;20193;-81
2021/05/05 13:53:24;;;;;;;7.95;2.45;;;18.50;47.50;;;;;;4943014;29;20169;-81
2021/05/05 13:56:07;;;;;;;10.27;2.75;;;18.50;47.50;;;;;;4925506;29;20200;-81
2021/05/05 13:58:33;;;;;;;3.40;2.30;;;18.50;47.60;;;;;;4929385;29;20215;-81
2021/05/05 14:01:20;;;;;;;7.45;2.30;;;18.50;47.60;;;;;;4947754;29;20177;-81
2021/05/05 14:04:17;;;;;;;8.18;2.50;;;18.50;47.60;;;;;;4965617;29;20158;-82
2021/05/05 14:06:49;;;;;;;4.95;2.55;;;18.50;47.70;;;;;;4890668;29;20194;-81
2021/05/05 14:09:24;;;;;;;4.15;2.20;;;18.50;47.70;;;;;;4889552;29;20690;-81
2021/05/05 14:11:58;;;;;;;7.40;2.50;;;18.50;47.80;;;;;;4906864;29;20183;-81
2021/05/05 14:14:27;;;;;;;9.45;2.63;;;18.50;47.70;;;;;;4891521;29;20234;-81
2021/05/05 14:17:14;;;;;;;6.05;2.40;;;18.50;47.90;;;;;;4890125;29;20187;-81
2021/05/05 14:19:54;;;;;;;4.72;2.20;;;18.50;47.70;;;;;;4891344;29;20182;-80
2021/05/05 14:22:30;;;;;;;6.10;2.30;;;18.50;47.60;;;;;;4891123;29;20239;-81
2021/05/05 14:24:56;;;;;;;7.57;2.20;;;18.50;47.50;;;;;;4905335;29;20715;-81
2021/05/05 14:27:34;;;;;;;9.48;2.63;;;18.60;47.60;;;;;;4902233;29;20179;-81
2021/05/05 14:30:01;;;;;;;5.03;2.50;;;18.60;47.50;;;;;;4904201;29;20184;-83
2021/05/05 14:32:30;;;;;;;7.32;2.72;;;18.60;47.50;;;;;;4888467;29;20227;-81
2021/05/05 14:34:57;;;;;;;7.03;2.38;;;18.50;47.70;;;;;;4886635;29;20190;-82
2021/05/05 14:37:25;;;;;;;6.72;2.55;;;18.50;47.70;;;;;;4903189;29;20226;-81
2021/05/05 14:39:52;;;;;;;4.78;2.50;;;18.50;47.80;;;;;;4886094;29;20168;-82
2021/05/05 14:42:25;;;;;;;8.20;2.40;;;18.50;47.90;;;;;;4890256;29;20254;-81
2021/05/05 14:50:24;;;;;;;4.47;2.33;;;18.50;48.00;;;;;;4947507;29;20246;-82
2021/05/05 14:52:50;;;;;;;11.45;2.50;;;18.50;48.00;;;;;;4943139;29;20218;-81
2021/05/05 14:55:24;;;;;;;5.25;2.58;;;18.50;48.00;;;;;;4945824;29;20173;-81
2021/05/05 14:57:58;;;;;;;6.57;2.50;;;18.50;48.00;;;;;;4942750;29;20196;-81
2021/05/05 15:00:25;;;;;;;7.95;2.33;;;18.50;48.00;;;;;;4962121;29;20161;-80
2021/05/05 15:02:52;;;;;;;6.15;2.53;;;18.50;48.00;;;;;;4962126;29;20168;-81
2021/05/05 15:05:22;;;;;;;8.00;2.58;;;18.50;48.00;;;;;;4942829;29;20277;-80
2021/05/05 15:07:52;;;;;;;10.77;2.80;;;18.50;48.00;;;;;;4946962;29;20177;-80
2021/05/05 15:10:34;;;;;;;11.63;2.55;;;18.50;48.10;;;;;;4929314;29;20607;-80
2021/05/05 15:13:08;;;;;;;25.17;3.42;;;18.50;48.00;;;;;;4933454;29;20169;-81
2021/05/05 15:16:26;;;;;;;37.75;4.18;;;18.50;48.00;;;;;;4948547;29;20208;-80
2021/05/05 15:38:28;;;;;;;30.10;3.90;;;18.60;47.80;;;;;;4912328;29;20218;-82
2021/05/05 15:48:28;;;;;;;26.88;3.58;;;18.60;47.90;;;;;;4906467;29;20258;-81
2021/05/05 15:50:54;;;;;;;16.23;3.03;;;18.70;48.20;;;;;;4910347;29;20165;-82
2021/05/05 15:55:49;;;;;;;16.83;3.28;;;18.70;48.00;;;;;;4904919;29;20249;-78
2021/05/05 15:58:17;;;;;;;20.20;3.30;;;18.70;48.10;;;;;;4918615;29;20191;-79
2021/05/05 16:00:48;;;;;;;19.50;3.35;;;18.70;48.00;;;;;;4887600;29;20166;-79
2021/05/05 16:16:30;;;;;;;14.85;3.22;;;18.80;48.70;;;;;;4959896;28;20527;-81
2021/05/05 16:19:18;;;;;;;19.38;3.58;;;18.70;48.70;;;;;;4968355;28;20201;-83
2021/05/05 16:22:04;;;;;;;14.20;2.92;;;18.80;48.30;;;;;;4964718;28;20169;-82
2021/05/05 16:27:51;;;;;;;18.98;3.17;;;18.80;48.70;;;;;;4967872;28;20250;-80
2021/05/05 16:30:55;;;;;;;22.83;3.25;;;18.80;48.70;;;;;;4973832;28;20244;-81
2021/05/05 16:54:57;;;;;;;18.05;3.63;;;18.80;49.10;;;;;;4960740;29;20160;-82
2021/05/05 16:57:41;;;;;;;12.55;3.10;;;18.80;48.90;;;;;;4939453;29;20252;-82
2021/05/05 17:11:41;;;;;;;16.10;3.08;;;18.90;48.90;;;;;;4938893;29;20266;-81
2021/05/05 17:14:16;;;;;;;15.50;3.25;;;18.80;49.20;;;;;;4951864;29;20172;-81
2021/05/05 17:20:15;;;;;;;19.02;3.08;;;18.80;48.90;;;;;;4936635;29;20192;-81
2021/05/05 17:23:04;;;;;;;12.50;3.33;;;18.80;49.00;;;;;;4960564;29;20213;-81
2021/05/05 17:49:55;;;;;;;15.02;2.47;;;18.80;50.10;;;;;;4894898;29;20198;-81
2021/05/05 17:58:59;;;;;;;17.55;3.10;;;18.90;50.00;;;;;;4897340;29;20263;-81
2021/05/05 18:20:56;;;;;;;15.52;3.70;;;18.80;49.90;;;;;;4912770;29;20518;-80
2021/05/05 18:23:44;;;;;;;13.18;2.55;;;18.80;50.20;;;;;;4903564;29;20262;-80
2021/05/05 18:31:59;;;;;;;24.70;3.50;;;18.70;50.40;;;;;;4855620;29;20366;-81
2021/05/05 18:34:26;;;;;;;10.38;3.30;;;18.70;50.30;;;;;;4857168;29;20189;-81
2021/05/05 18:36:57;;;;;;;18.92;2.88;;;18.70;50.30;;;;;;4855101;29;20185;-80
2021/05/05 18:43:20;;;;;;;19.02;2.90;;;18.70;50.10;;;;;;4812315;29;20175;-80
2021/05/05 19:54:43;;;;;;;7.32;2.90;;;18.40;53.40;;;;;;4894468;29;20191;-81
2021/05/05 20:24:28;;;;;;;14.55;3.40;;;18.30;54.30;;;;;;4896027;29;20167;-80
2021/05/05 20:32:43;;;;;;;8.40;2.60;;;18.30;54.60;;;;;;4962567;28;20188;-80
2021/05/05 21:22:21;;;;;;;9.77;2.78;;;18.30;55.10;;;;;;4919331;29;20213;-80
2021/05/05 22:41:19;;;;;;;11.48;3.05;;;18.20;55.40;;;;;;4861865;29;20190;-80
2021/05/05 23:08:51;;;;;;;5.80;2.55;;;18.20;55.30;;;;;;4961262;28;20183;-80
2021/05/05 23:15:11;;;;;;;7.15;2.80;;;18.20;55.40;;;;;;4961959;28;20185;-80
2021/05/05 23:28:10;;;;;;;6.00;2.60;;;18.20;55.60;;;;;;4973002;28;20329;-80
2021/05/05 23:56:16;;;;;;;7.07;2.60;;;18.10;56.00;;;;;;4971515;28;20161;-80
